Time;durP1;ratioP1;P1;durP2;ratioP2;P2;SDS_P1;SDS_P2;PMS_P1;PMS_P2;Temp;Humidity;BMP_temperature;BMP_pressure;BME280_temperature;BME280_humidity;BME280_pressure;Samples;Min_cycle;Max_cycle;Signal;HPM_P1;HPM_P2
2021/05/28 00:01:40;;;;;;;22.47;11.43;;;;;;;;;;5065772;28;20174;-70
2021/05/28 00:04:05;;;;;;;25.07;13.10;;;;;;;;;;5066369;28;20192;-70
2021/05/28 00:06:30;;;;;;;27.03;14.37;;;;;;;;;;5071346;28;20181;-70
2021/05/28 00:08:55;;;;;;;19.47;13.83;;;;;;;;;;5071832;28;20197;-70
2021/05/28 00:11:21;;;;;;;21.53;13.10;;;;;;;;;;5064094;28;20180;-69
2021/05/28 00:13:46;;;;;;;21.00;13.63;;;;;;;;;;5068958;28;20209;-69
2021/05/28 00:16:11;;;;;;;28.43;13.83;;;;;;;;;;5069712;28;20180;-70
2021/05/28 00:18:36;;;;;;;25.43;13.40;;;;;;;;;;5064695;28;20721;-70
2021/05/28 00:21:02;;;;;;;22.93;13.90;;;;;;;;;;5065834;28;20178;-70
2021/05/28 00:23:27;;;;;;;22.47;13.93;;;;;;;;;;5056818;28;20189;-70
2021/05/28 00:25:52;;;;;;;21.03;13.23;;;;;;;;;;5062377;28;20177;-70
2021/05/28 00:28:18;;;;;;;22.50;14.63;;;;;;;;;;5069326;28;20181;-70
2021/05/28 00:30:43;;;;;;;23.37;14.07;;;;;;;;;;5059585;28;20268;-70
2021/05/28 00:33:08;;;;;;;26.03;16.00;;;;;;;;;;5060712;28;20240;-70
2021/05/28 00:35:33;;;;;;;26.23;13.90;;;;;;;;;;5068818;28;20181;-70
2021/05/28 00:37:58;;;;;;;25.63;14.13;;;;;;;;;;5071132;28;20662;-70
2021/05/28 00:40:24;;;;;;;26.97;13.77;;;;;;;;;;5065243;28;20205;-70
2021/05/28 00:42:49;;;;;;;21.90;14.17;;;;;;;;;;5064445;28;20201;-70
2021/05/28 00:45:15;;;;;;;22.67;15.23;;;;;;;;;;5053980;28;20202;-70
2021/05/28 00:47:40;;;;;;;19.40;14.17;;;;;;;;;;5063384;28;20184;-70
2021/05/28 00:50:06;;;;;;;17.97;12.57;;;;;;;;;;5066941;28;20711;-70
2021/05/28 00:52:31;;;;;;;23.63;13.33;;;;;;;;;;5067015;28;20209;-70
2021/05/28 00:54:56;;;;;;;19.63;12.93;;;;;;;;;;5065270;28;20704;-70
2021/05/28 00:57:23;;;;;;;19.67;12.47;;;;;;;;;;5066349;28;20178;-71
2021/05/28 00:59:50;;;;;;;18.07;12.27;;;;;;;;;;5069559;28;20287;-69
2021/05/28 01:02:15;;;;;;;21.60;13.47;;;;;;;;;;5066718;28;20715;-69
2021/05/28 01:04:40;;;;;;;25.60;13.63;;;;;;;;;;5063808;28;20206;-70
2021/05/28 01:07:06;;;;;;;23.77;13.70;;;;;;;;;;5066558;28;20176;-70
2021/05/28 01:09:31;;;;;;;20.63;12.80;;;;;;;;;;5066172;28;20193;-71
2021/05/28 01:11:56;;;;;;;23.00;13.57;;;;;;;;;;5065431;28;20576;-70
2021/05/28 01:14:21;;;;;;;23.83;13.10;;;;;;;;;;5066579;28;20703;-71
2021/05/28 01:16:47;;;;;;;27.07;12.13;;;;;;;;;;5068828;28;20597;-71
2021/05/28 01:19:12;;;;;;;21.97;12.30;;;;;;;;;;5067548;28;20635;-71
2021/05/28 01:21:37;;;;;;;21.93;13.73;;;;;;;;;;5066341;28;20209;-70
2021/05/28 01:24:03;;;;;;;22.57;12.43;;;;;;;;;;5059525;28;20612;-71
2021/05/28 01:26:28;;;;;;;17.83;11.87;;;;;;;;;;5060590;28;20168;-71
2021/05/28 01:28:54;;;;;;;18.40;11.53;;;;;;;;;;5067130;28;20173;-71
2021/05/28 01:31:19;;;;;;;22.30;11.57;;;;;;;;;;5055443;28;20177;-70
2021/05/28 01:33:45;;;;;;;20.63;12.23;;;;;;;;;;5063195;28;20216;-70
2021/05/28 01:36:11;;;;;;;22.00;12.50;;;;;;;;;;5063693;28;20882;-70
2021/05/28 01:38:36;;;;;;;20.17;11.50;;;;;;;;;;5065155;28;20201;-70
2021/05/28 01:41:02;;;;;;;25.20;13.73;;;;;;;;;;5058484;28;20173;-71
2021/05/28 01:43:27;;;;;;;23.63;13.20;;;;;;;;;;5063983;28;20242;-70
2021/05/28 01:45:52;;;;;;;20.57;12.17;;;;;;;;;;5062038;28;20176;-70
2021/05/28 01:48:18;;;;;;;17.13;10.93;;;;;;;;;;5060191;28;20542;-70
2021/05/28 01:50:44;;;;;;;20.83;13.17;;;;;;;;;;5062531;28;20176;-70
2021/05/28 01:53:13;;;;;;;20.40;12.43;;;;;;;;;;5059420;28;20577;-71
2021/05/28 01:55:38;;;;;;;21.93;12.70;;;;;;;;;;5070060;28;20711;-70
2021/05/28 01:58:07;;;;;;;23.83;12.93;;;;;;;;;;5061298;28;20177;-71
2021/05/28 02:00:32;;;;;;;23.23;13.70;;;;;;;;;;5068428;28;20250;-70
2021/05/28 02:02:57;;;;;;;21.17;12.33;;;;;;;;;;5060722;28;20196;-71
2021/05/28 02:05:23;;;;;;;23.43;13.40;;;;;;;;;;5066371;28;20174;-70
2021/05/28 02:07:48;;;;;;;19.60;11.77;;;;;;;;;;5068364;28;20185;-70
2021/05/28 02:10:13;;;;;;;25.60;12.93;;;;;;;;;;5067689;28;20181;-70
2021/05/28 02:12:38;;;;;;;20.90;13.03;;;;;;;;;;5069117;28;20288;-70
2021/05/28 02:15:04;;;;;;;19.83;12.60;;;;;;;;;;5059254;28;20180;-71
2021/05/28 02:17:29;;;;;;;29.37;14.30;;;;;;;;;;5065792;28;20209;-70
2021/05/28 02:19:55;;;;;;;23.23;14.03;;;;;;;;;;5066056;28;20208;-70
2021/05/28 02:22:20;;;;;;;24.17;14.33;;;;;;;;;;5066253;28;20681;-70
2021/05/28 02:24:45;;;;;;;23.83;13.47;;;;;;;;;;5059144;28;20177;-70
2021/05/28 02:27:11;;;;;;;24.73;13.37;;;;;;;;;;5060671;28;20647;-70
2021/05/28 02:29:37;;;;;;;30.70;15.70;;;;;;;;;;5067585;28;20181;-70
2021/05/28 02:32:02;;;;;;;27.57;16.10;;;;;;;;;;5059602;28;20185;-70
2021/05/28 02:34:27;;;;;;;30.83;16.00;;;;;;;;;;5067781;28;20176;-70
2021/05/28 02:36:53;;;;;;;27.63;16.73;;;;;;;;;;5065295;28;20184;-70
2021/05/28 02:39:18;;;;;;;26.07;15.30;;;;;;;;;;5060356;28;20216;-71
2021/05/28 02:41:43;;;;;;;26.00;15.00;;;;;;;;;;5066724;28;20688;-70
2021/05/28 02:44:08;;;;;;;30.10;15.47;;;;;;;;;;5054430;28;20210;-70
2021/05/28 02:46:34;;;;;;;27.07;16.50;;;;;;;;;;5062032;28;20179;-70
2021/05/28 02:48:59;;;;;;;28.97;17.00;;;;;;;;;;5062731;28;20196;-70
2021/05/28 02:51:25;;;;;;;27.37;15.77;;;;;;;;;;5067746;28;20177;-71
2021/05/28 02:53:50;;;;;;;29.93;16.60;;;;;;;;;;5069785;28;20283;-70
2021/05/28 02:56:15;;;;;;;27.47;16.53;;;;;;;;;;5063673;28;20212;-70
2021/05/28 02:58:40;;;;;;;34.73;19.23;;;;;;;;;;5064741;28;20203;-70
2021/05/28 03:01:05;;;;;;;30.83;16.40;;;;;;;;;;5071776;28;20219;-70
2021/05/28 03:03:31;;;;;;;30.87;17.03;;;;;;;;;;5068965;28;20244;-70
2021/05/28 03:05:56;;;;;;;32.43;16.23;;;;;;;;;;5070766;28;20260;-71
2021/05/28 03:08:21;;;;;;;25.03;15.53;;;;;;;;;;5069630;28;20239;-70
2021/05/28 03:10:46;;;;;;;29.43;17.30;;;;;;;;;;5064493;28;20184;-70
2021/05/28 03:13:12;;;;;;;39.13;18.50;;;;;;;;;;5062165;28;20209;-71
2021/05/28 03:15:37;;;;;;;31.70;16.77;;;;;;;;;;5059007;28;20190;-70
2021/05/28 03:18:03;;;;;;;29.77;16.13;;;;;;;;;;5059571;28;20536;-70
2021/05/28 03:20:35;;;;;;;30.63;17.10;;;;;;;;;;5060908;28;20212;-70
2021/05/28 03:23:01;;;;;;;32.80;17.40;;;;;;;;;;5061143;28;20736;-70
2021/05/28 03:25:26;;;;;;;31.53;16.57;;;;;;;;;;5060876;28;20184;-70
2021/05/28 03:27:53;;;;;;;30.37;16.30;;;;;;;;;;5061048;28;20181;-70
2021/05/28 03:30:18;;;;;;;36.57;18.77;;;;;;;;;;5066485;28;21389;-70
2021/05/28 03:32:43;;;;;;;33.47;18.23;;;;;;;;;;5066272;28;20193;-70
2021/05/28 03:35:09;;;;;;;32.33;18.00;;;;;;;;;;5066567;28;20551;-71
2021/05/28 03:37:34;;;;;;;33.57;18.63;;;;;;;;;;5068461;28;20548;-69
2021/05/28 03:40:00;;;;;;;32.07;19.90;;;;;;;;;;5067486;28;20240;-70
2021/05/28 03:42:25;;;;;;;30.87;18.37;;;;;;;;;;5063537;28;20197;-69
2021/05/28 03:44:51;;;;;;;33.20;17.23;;;;;;;;;;5061726;28;20177;-70
2021/05/28 03:47:17;;;;;;;44.13;18.87;;;;;;;;;;5064602;28;20177;-70
2021/05/28 03:49:43;;;;;;;32.23;18.33;;;;;;;;;;5067124;28;20303;-70
2021/05/28 03:52:09;;;;;;;32.13;19.57;;;;;;;;;;5068818;28;20272;-70
2021/05/28 03:54:34;;;;;;;37.53;17.83;;;;;;;;;;5064196;28;20172;-70
2021/05/28 03:56:59;;;;;;;35.20;18.47;;;;;;;;;;5069428;28;20559;-70
2021/05/28 03:59:25;;;;;;;27.97;16.43;;;;;;;;;;5070259;28;20242;-70
2021/05/28 04:01:50;;;;;;;31.47;16.67;;;;;;;;;;5060772;28;20597;-70
2021/05/28 04:04:15;;;;;;;29.63;16.17;;;;;;;;;;5064193;28;20197;-70
2021/05/28 04:06:40;;;;;;;32.60;16.63;;;;;;;;;;5063854;28;20173;-70
2021/05/28 04:09:05;;;;;;;31.80;17.53;;;;;;;;;;5064623;28;20180;-70
2021/05/28 04:11:31;;;;;;;29.57;17.47;;;;;;;;;;5068911;28;20181;-71
2021/05/28 04:13:56;;;;;;;26.90;16.43;;;;;;;;;;5064708;28;20201;-70
2021/05/28 04:16:21;;;;;;;30.87;17.20;;;;;;;;;;5070464;28;20731;-70
2021/05/28 04:18:46;;;;;;;27.57;17.40;;;;;;;;;;5063422;28;20284;-71
2021/05/28 04:21:11;;;;;;;28.40;16.27;;;;;;;;;;5062782;28;20646;-70
2021/05/28 04:23:37;;;;;;;20.90;14.60;;;;;;;;;;5063714;28;20188;-70
2021/05/28 04:26:02;;;;;;;25.77;17.33;;;;;;;;;;5066957;28;20272;-70
2021/05/28 04:28:28;;;;;;;20.27;14.77;;;;;;;;;;5064011;28;20654;-70
2021/05/28 04:30:53;;;;;;;19.27;14.93;;;;;;;;;;5067496;28;20176;-70
2021/05/28 04:33:19;;;;;;;21.93;14.90;;;;;;;;;;5062346;28;20567;-70
2021/05/28 04:35:44;;;;;;;18.47;14.63;;;;;;;;;;5063411;28;20200;-70
2021/05/28 04:38:09;;;;;;;21.30;13.53;;;;;;;;;;5056367;28;20188;-70
2021/05/28 04:40:35;;;;;;;19.23;14.00;;;;;;;;;;5064729;28;20558;-70
2021/05/28 04:43:00;;;;;;;17.60;13.23;;;;;;;;;;5056886;28;20197;-70
2021/05/28 04:45:26;;;;;;;17.43;13.83;;;;;;;;;;5053911;28;20202;-70
2021/05/28 04:47:52;;;;;;;18.57;13.70;;;;;;;;;;5048492;28;20176;-70
2021/05/28 04:50:17;;;;;;;21.10;13.10;;;;;;;;;;5053453;28;20177;-70
2021/05/28 04:52:45;;;;;;;18.00;12.23;;;;;;;;;;5050718;28;20607;-70
2021/05/28 04:55:10;;;;;;;17.73;13.03;;;;;;;;;;5054017;28;20182;-69
2021/05/28 04:57:35;;;;;;;18.00;14.37;;;;;;;;;;5054468;28;20604;-70
2021/05/28 05:00:01;;;;;;;13.33;11.73;;;;;;;;;;5051778;28;20624;-70
2021/05/28 05:02:26;;;;;;;15.57;11.67;;;;;;;;;;5051907;28;20276;-70
2021/05/28 05:04:51;;;;;;;15.00;11.77;;;;;;;;;;5050515;28;20185;-70
2021/05/28 05:07:17;;;;;;;15.70;11.77;;;;;;;;;;5049202;28;20729;-69
2021/05/28 05:09:42;;;;;;;15.27;11.17;;;;;;;;;;5052336;28;20178;-69
2021/05/28 05:12:07;;;;;;;14.37;11.00;;;;;;;;;;5057371;28;20712;-69
2021/05/28 05:14:32;;;;;;;18.40;12.67;;;;;;;;;;5053265;28;20189;-69
2021/05/28 05:16:58;;;;;;;16.60;11.20;;;;;;;;;;5056642;28;20707;-69
2021/05/28 05:19:23;;;;;;;16.90;11.20;;;;;;;;;;5054499;28;20773;-69
2021/05/28 05:21:49;;;;;;;14.50;10.03;;;;;;;;;;5063809;28;20239;-69
2021/05/28 05:24:15;;;;;;;15.57;11.37;;;;;;;;;;5068500;28;20177;-69
2021/05/28 05:26:40;;;;;;;16.07;11.33;;;;;;;;;;5056554;28;20177;-70
2021/05/28 05:29:05;;;;;;;13.10;10.23;;;;;;;;;;5058813;28;20558;-69
2021/05/28 05:31:30;;;;;;;14.10;10.07;;;;;;;;;;5068626;28;20592;-69
2021/05/28 05:33:56;;;;;;;11.77;9.97;;;;;;;;;;5061818;28;20261;-69
2021/05/28 05:36:21;;;;;;;14.27;10.40;;;;;;;;;;5069204;28;20180;-69
2021/05/28 05:38:46;;;;;;;15.73;10.63;;;;;;;;;;5059326;28;20185;-69
2021/05/28 05:41:11;;;;;;;13.10;9.50;;;;;;;;;;5062074;28;20173;-68
2021/05/28 05:43:37;;;;;;;14.80;9.67;;;;;;;;;;5055470;28;20201;-70
2021/05/28 05:46:02;;;;;;;12.07;9.60;;;;;;;;;;5051158;28;20670;-69
2021/05/28 05:48:28;;;;;;;14.17;9.80;;;;;;;;;;5055199;28;20180;-69
2021/05/28 05:50:53;;;;;;;12.57;9.80;;;;;;;;;;5059593;28;20599;-69
2021/05/28 05:53:18;;;;;;;10.80;9.37;;;;;;;;;;5054669;28;20232;-69
2021/05/28 05:55:43;;;;;;;11.60;8.80;;;;;;;;;;5055341;28;20876;-69
2021/05/28 05:58:08;;;;;;;12.73;8.53;;;;;;;;;;5055444;28;20191;-69
2021/05/28 06:00:34;;;;;;;12.70;8.50;;;;;;;;;;5057055;28;20576;-68
2021/05/28 06:02:59;;;;;;;12.00;7.70;;;;;;;;;;5051226;28;20247;-69
2021/05/28 06:05:24;;;;;;;12.13;8.43;;;;;;;;;;5044560;28;20523;-69
2021/05/28 06:07:49;;;;;;;8.87;7.63;;;;;;;;;;5050005;28;20191;-68
2021/05/28 06:10:15;;;;;;;9.87;7.13;;;;;;;;;;5052465;28;20565;-69
2021/05/28 06:12:40;;;;;;;9.77;7.33;;;;;;;;;;5050195;28;20205;-69
2021/05/28 06:15:06;;;;;;;14.03;7.27;;;;;;;;;;5051697;28;20193;-69
2021/05/28 06:17:31;;;;;;;11.43;6.97;;;;;;;;;;5052601;28;20216;-69
2021/05/28 06:19:56;;;;;;;12.18;6.63;;;;;;;;;;5051866;28;20289;-69
2021/05/28 06:22:22;;;;;;;15.60;7.70;;;;;;;;;;5054334;28;20210;-69
2021/05/28 06:24:48;;;;;;;14.33;8.03;;;;;;;;;;5056751;28;21114;-69
2021/05/28 06:27:13;;;;;;;11.35;7.60;;;;;;;;;;5056998;28;20181;-69
2021/05/28 06:29:39;;;;;;;15.02;7.40;;;;;;;;;;5054815;28;20184;-69
2021/05/28 06:32:04;;;;;;;8.18;5.82;;;;;;;;;;5060904;28;20216;-69
2021/05/28 06:34:29;;;;;;;11.48;6.00;;;;;;;;;;5053824;28;20226;-68
2021/05/28 06:36:54;;;;;;;7.45;5.22;;;;;;;;;;5052344;28;20188;-69
2021/05/28 06:39:20;;;;;;;6.78;5.13;;;;;;;;;;5054298;28;20247;-69
2021/05/28 06:41:45;;;;;;;6.70;5.35;;;;;;;;;;5055643;28;20416;-69
2021/05/28 06:44:10;;;;;;;9.25;5.47;;;;;;;;;;5051853;28;20208;-69
2021/05/28 06:46:35;;;;;;;5.82;5.03;;;;;;;;;;5058460;28;20261;-69
2021/05/28 06:49:00;;;;;;;8.00;5.50;;;;;;;;;;5053142;28;20369;-69
2021/05/28 06:51:26;;;;;;;6.00;5.05;;;;;;;;;;5054536;28;20177;-69
2021/05/28 06:53:51;;;;;;;10.18;5.47;;;;;;;;;;5050525;28;20213;-69
2021/05/28 06:56:16;;;;;;;5.75;4.93;;;;;;;;;;5052002;28;20250;-69
2021/05/28 06:58:47;;;;;;;6.72;5.32;;;;;;;;;;5051489;28;20209;-69
2021/05/28 07:01:12;;;;;;;8.98;5.65;;;;;;;;;;5052488;28;20268;-69
2021/05/28 07:03:37;;;;;;;6.95;6.25;;;;;;;;;;5049287;28;20221;-69
2021/05/28 07:06:03;;;;;;;7.23;5.50;;;;;;;;;;5048294;28;20200;-69
2021/05/28 07:08:28;;;;;;;12.38;6.03;;;;;;;;;;5050629;28;20920;-69
2021/05/28 07:10:53;;;;;;;6.97;5.50;;;;;;;;;;5055324;28;20604;-69
2021/05/28 07:13:18;;;;;;;7.43;5.50;;;;;;;;;;5056999;28;20453;-69
2021/05/28 07:15:43;;;;;;;6.83;5.40;;;;;;;;;;5053746;28;20866;-69
2021/05/28 07:18:09;;;;;;;7.70;5.70;;;;;;;;;;5056748;28;20422;-69
2021/05/28 07:20:34;;;;;;;8.10;5.43;;;;;;;;;;5054011;28;21119;-69
2021/05/28 07:22:59;;;;;;;10.43;5.40;;;;;;;;;;5053221;28;20200;-70
2021/05/28 07:25:25;;;;;;;7.93;5.30;;;;;;;;;;5054528;28;20563;-70
2021/05/28 07:27:50;;;;;;;7.25;4.78;;;;;;;;;;5052016;28;20521;-70
2021/05/28 07:30:16;;;;;;;15.82;6.65;;;;;;;;;;5053407;28;20781;-69
2021/05/28 07:32:41;;;;;;;9.38;4.95;;;;;;;;;;5052004;28;20209;-69
2021/05/28 07:35:07;;;;;;;9.77;5.30;;;;;;;;;;5051251;28;20189;-69
2021/05/28 07:37:32;;;;;;;7.78;4.97;;;;;;;;;;5048122;28;20452;-69
2021/05/28 07:39:57;;;;;;;6.90;4.97;;;;;;;;;;5051691;28;20205;-69
2021/05/28 07:42:23;;;;;;;5.68;4.43;;;;;;;;;;5051669;28;20820;-69
2021/05/28 07:44:48;;;;;;;5.60;5.00;;;;;;;;;;5050681;28;20176;-69
2021/05/28 07:47:14;;;;;;;7.60;4.38;;;;;;;;;;5051769;28;20177;-69
2021/05/28 07:49:39;;;;;;;7.80;3.97;;;;;;;;;;5049425;28;21847;-69
2021/05/28 07:52:05;;;;;;;6.82;4.30;;;;;;;;;;5048732;28;20271;-70
2021/05/28 07:54:30;;;;;;;6.15;4.43;;;;;;;;;;5048604;28;20623;-69
2021/05/28 07:56:55;;;;;;;5.53;4.00;;;;;;;;;;5052347;28;20208;-69
2021/05/28 07:59:20;;;;;;;5.28;4.47;;;;;;;;;;5048574;28;20213;-70
2021/05/28 08:01:46;;;;;;;4.70;3.90;;;;;;;;;;5057472;28;20752;-70
2021/05/28 08:04:11;;;;;;;6.18;5.22;;;;;;;;;;5050801;28;20193;-70
2021/05/28 08:06:36;;;;;;;6.17;4.00;;;;;;;;;;5048333;28;20196;-70
2021/05/28 08:09:01;;;;;;;4.82;3.95;;;;;;;;;;5048770;28;20446;-70
2021/05/28 08:11:26;;;;;;;4.50;3.60;;;;;;;;;;5049694;28;20213;-69
2021/05/28 08:13:52;;;;;;;5.43;3.75;;;;;;;;;;5050237;28;20571;-70
2021/05/28 08:16:17;;;;;;;5.45;3.75;;;;;;;;;;5047283;28;20185;-70
2021/05/28 08:18:42;;;;;;;6.78;3.97;;;;;;;;;;5050281;28;20187;-69
2021/05/28 08:21:09;;;;;;;3.83;3.03;;;;;;;;;;5051154;28;20207;-70
2021/05/28 08:23:34;;;;;;;3.72;3.17;;;;;;;;;;5049528;28;20193;-70
2021/05/28 08:26:02;;;;;;;4.70;3.20;;;;;;;;;;5048047;28;20189;-69
2021/05/28 08:28:27;;;;;;;4.90;3.45;;;;;;;;;;5044422;28;20174;-69
2021/05/28 08:30:53;;;;;;;8.15;4.35;;;;;;;;;;5050270;28;20182;-69
2021/05/28 08:33:18;;;;;;;4.73;3.30;;;;;;;;;;5052091;28;20223;-69
2021/05/28 08:35:43;;;;;;;3.95;2.78;;;;;;;;;;5055866;28;20498;-69
2021/05/28 08:38:09;;;;;;;5.28;3.65;;;;;;;;;;5055059;28;20558;-69
2021/05/28 08:40:35;;;;;;;4.13;3.72;;;;;;;;;;5054750;28;20201;-70
2021/05/28 08:43:01;;;;;;;5.00;3.40;;;;;;;;;;5049012;28;20266;-70
2021/05/28 08:45:47;;;;;;;4.53;3.45;;;;;;;;;;5063988;28;20555;-69
2021/05/28 08:48:16;;;;;;;6.65;2.90;;;;;;;;;;5047955;28;21691;-69
2021/05/28 08:50:42;;;;;;;5.45;3.33;;;;;;;;;;5047828;28;20698;-69
2021/05/28 08:53:09;;;;;;;5.13;3.30;;;;;;;;;;5047433;28;20227;-69
2021/05/28 08:55:35;;;;;;;4.95;3.17;;;;;;;;;;5053446;28;20196;-70
2021/05/28 08:58:04;;;;;;;4.50;2.95;;;;;;;;;;5048110;28;20867;-70
2021/05/28 09:00:29;;;;;;;5.70;2.70;;;;;;;;;;5047066;28;20235;-70
2021/05/28 09:02:54;;;;;;;6.03;2.73;;;;;;;;;;5052344;28;20276;-69
2021/05/28 09:05:24;;;;;;;2.67;2.07;;;;;;;;;;5043794;28;20476;-70
2021/05/28 09:08:00;;;;;;;2.38;1.70;;;;;;;;;;5050652;28;20429;-70
2021/05/28 09:10:28;;;;;;;5.68;2.42;;;;;;;;;;5050205;28;20220;-69
2021/05/28 09:12:53;;;;;;;3.95;2.50;;;;;;;;;;5049005;28;20871;-69
2021/05/28 09:15:19;;;;;;;3.35;2.00;;;;;;;;;;5050566;28;20184;-70
2021/05/28 09:17:51;;;;;;;2.85;2.08;;;;;;;;;;5047719;28;20823;-69
2021/05/28 09:20:20;;;;;;;3.25;2.10;;;;;;;;;;5050544;28;20216;-70
2021/05/28 09:22:46;;;;;;;3.20;2.05;;;;;;;;;;5045484;28;20216;-70
2021/05/28 09:25:11;;;;;;;4.30;2.50;;;;;;;;;;5026442;28;20185;-70
2021/05/28 09:27:37;;;;;;;6.47;2.38;;;;;;;;;;5046971;28;20176;-69
2021/05/28 09:30:05;;;;;;;4.15;1.92;;;;;;;;;;5050505;28;20169;-69
2021/05/28 09:32:31;;;;;;;3.20;2.17;;;;;;;;;;5050220;28;20271;-69
2021/05/28 09:34:56;;;;;;;3.33;1.90;;;;;;;;;;5053282;28;20204;-69
2021/05/28 09:37:54;;;;;;;3.38;2.63;;;;;;;;;;5046782;28;20243;-69
2021/05/28 09:40:21;;;;;;;6.18;3.28;;;;;;;;;;5046774;28;20216;-69
2021/05/28 09:42:46;;;;;;;5.20;3.10;;;;;;;;;;5048721;28;20206;-69
2021/05/28 09:45:21;;;;;;;3.45;2.67;;;;;;;;;;5051305;28;20178;-69
2021/05/28 09:47:46;;;;;;;4.60;3.55;;;;;;;;;;5047260;28;20216;-68
2021/05/28 09:50:14;;;;;;;6.23;3.23;;;;;;;;;;5053588;28;20273;-70
2021/05/28 09:52:40;;;;;;;5.32;3.67;;;;;;;;;;5049217;28;21095;-70
2021/05/28 09:55:05;;;;;;;4.50;2.53;;;;;;;;;;5050478;28;20173;-70
2021/05/28 09:57:30;;;;;;;5.20;3.00;;;;;;;;;;5053021;28;20447;-70
2021/05/28 09:59:55;;;;;;;3.60;3.23;;;;;;;;;;5051909;28;20696;-70
2021/05/28 10:02:27;;;;;;;5.60;2.80;;;;;;;;;;5055724;28;20448;-71
2021/05/28 10:04:53;;;;;;;3.28;2.70;;;;;;;;;;5051024;28;20183;-70
2021/05/28 10:07:18;;;;;;;2.50;2.30;;;;;;;;;;5056019;28;20275;-70
2021/05/28 10:09:44;;;;;;;4.88;2.40;;;;;;;;;;5053348;28;20651;-69
2021/05/28 10:12:09;;;;;;;4.72;2.47;;;;;;;;;;5061809;28;20201;-69
2021/05/28 10:14:34;;;;;;;3.58;1.70;;;;;;;;;;5057077;28;20625;-69
2021/05/28 10:16:59;;;;;;;5.28;1.83;;;;;;;;;;5051629;28;20173;-69
2021/05/28 10:19:25;;;;;;;1.73;1.40;;;;;;;;;;5052725;28;20206;-69
2021/05/28 10:21:50;;;;;;;2.37;1.50;;;;;;;;;;5051854;28;20674;-68
2021/05/28 10:24:15;;;;;;;2.10;1.10;;;;;;;;;;5048347;28;20453;-70
2021/05/28 10:26:42;;;;;;;2.72;1.20;;;;;;;;;;5052659;28;20426;-69
2021/05/28 10:29:07;;;;;;;1.50;1.17;;;;;;;;;;5049863;28;20742;-69
2021/05/28 10:31:51;;;;;;;2.03;0.93;;;;;;;;;;5050576;28;20189;-69
2021/05/28 10:34:16;;;;;;;2.33;1.08;;;;;;;;;;5050967;28;20448;-69
2021/05/28 10:36:42;;;;;;;2.90;1.07;;;;;;;;;;5049919;28;20689;-69
2021/05/28 10:39:08;;;;;;;2.58;1.10;;;;;;;;;;5051776;28;20506;-68
2021/05/28 10:41:34;;;;;;;1.52;1.15;;;;;;;;;;5059681;28;20169;-69
2021/05/28 10:44:01;;;;;;;1.33;0.95;;;;;;;;;;5051289;28;20273;-69
2021/05/28 10:46:27;;;;;;;2.25;1.10;;;;;;;;;;5050031;28;20810;-68
2021/05/28 10:48:55;;;;;;;2.50;1.20;;;;;;;;;;5052396;28;20184;-69
2021/05/28 10:51:22;;;;;;;2.28;1.65;;;;;;;;;;5056040;28;20177;-68
2021/05/28 10:53:51;;;;;;;1.77;0.75;;;;;;;;;;5050568;28;20567;-69
2021/05/28 10:56:16;;;;;;;1.48;1.20;;;;;;;;;;5054347;28;20186;-69
2021/05/28 10:58:54;;;;;;;1.33;1.10;;;;;;;;;;5049155;28;20173;-69
2021/05/28 11:01:31;;;;;;;1.13;1.02;;;;;;;;;;5050176;28;20181;-69
2021/05/28 11:03:57;;;;;;;1.40;0.90;;;;;;;;;;5051817;28;20218;-69
2021/05/28 11:06:22;;;;;;;3.42;1.10;;;;;;;;;;5049670;28;20303;-70
2021/05/28 11:08:48;;;;;;;2.03;1.25;;;;;;;;;;5049959;28;20861;-69
2021/05/28 11:11:32;;;;;;;2.95;1.08;;;;;;;;;;5055715;28;20177;-68
2021/05/28 11:13:59;;;;;;;2.85;1.30;;;;;;;;;;5049940;28;20204;-69
2021/05/28 11:16:24;;;;;;;1.98;1.40;;;;;;;;;;5053728;28;20181;-69
2021/05/28 11:18:50;;;;;;;3.88;1.50;;;;;;;;;;5057331;28;20238;-69
2021/05/28 11:21:17;;;;;;;3.45;1.60;;;;;;;;;;5051586;28;20185;-69
2021/05/28 11:23:44;;;;;;;2.65;1.45;;;;;;;;;;5051098;28;20694;-69
2021/05/28 11:26:13;;;;;;;1.55;1.10;;;;;;;;;;5051708;28;20185;-69
2021/05/28 11:28:55;;;;;;;3.70;1.25;;;;;;;;;;5047767;28;20650;-70
2021/05/28 11:31:21;;;;;;;1.40;0.80;;;;;;;;;;5048591;28;20181;-69
2021/05/28 11:33:46;;;;;;;1.60;1.10;;;;;;;;;;5048384;28;20201;-69
2021/05/28 11:36:18;;;;;;;2.00;0.95;;;;;;;;;;5052425;28;20189;-69
2021/05/28 11:38:44;;;;;;;2.10;1.23;;;;;;;;;;5052626;28;20189;-69
2021/05/28 11:41:09;;;;;;;1.30;1.20;;;;;;;;;;5057431;28;20184;-70
2021/05/28 11:43:35;;;;;;;2.17;1.05;;;;;;;;;;5052783;28;20209;-69
2021/05/28 11:46:01;;;;;;;1.73;1.25;;;;;;;;;;5051083;28;20165;-69
2021/05/28 11:48:28;;;;;;;2.20;1.25;;;;;;;;;;5047976;28;20187;-69
2021/05/28 11:50:57;;;;;;;3.10;1.10;;;;;;;;;;5047434;28;20285;-69
2021/05/28 11:53:23;;;;;;;1.75;1.00;;;;;;;;;;5052596;28;20949;-69
2021/05/28 11:55:50;;;;;;;1.23;1.00;;;;;;;;;;5050744;28;20267;-69
2021/05/28 11:58:22;;;;;;;1.63;0.80;;;;;;;;;;5047643;28;20186;-69
2021/05/28 12:00:48;;;;;;;1.33;0.77;;;;;;;;;;5052711;28;20197;-68
2021/05/28 12:03:14;;;;;;;1.13;0.88;;;;;;;;;;5050548;28;20204;-69
2021/05/28 12:05:40;;;;;;;1.15;1.00;;;;;;;;;;5051787;28;20173;-69
2021/05/28 12:08:11;;;;;;;1.42;0.70;;;;;;;;;;5050149;28;20259;-69
2021/05/28 12:10:40;;;;;;;2.35;0.68;;;;;;;;;;5049844;28;20196;-69
2021/05/28 12:13:16;;;;;;;0.90;0.60;;;;;;;;;;5049160;28;20199;-69
2021/05/28 12:15:41;;;;;;;2.33;0.77;;;;;;;;;;5048650;28;20656;-69
2021/05/28 12:18:13;;;;;;;1.43;0.60;;;;;;;;;;5053097;28;20258;-69
2021/05/28 12:20:38;;;;;;;0.80;0.40;;;;;;;;;;5052849;28;20201;-69
2021/05/28 12:23:04;;;;;;;1.67;0.80;;;;;;;;;;5055032;28;20207;-69
2021/05/28 12:25:30;;;;;;;0.90;0.60;;;;;;;;;;5049876;28;20606;-69
2021/05/28 12:28:06;;;;;;;0.95;0.68;;;;;;;;;;5053327;28;20428;-69
2021/05/28 12:30:31;;;;;;;1.90;0.85;;;;;;;;;;5054697;28;20234;-69
2021/05/28 12:32:56;;;;;;;1.83;0.77;;;;;;;;;;5051389;28;20205;-69
2021/05/28 12:35:21;;;;;;;0.50;0.50;;;;;;;;;;5049087;28;20429;-70
2021/05/28 12:38:05;;;;;;;0.82;0.68;;;;;;;;;;5048686;28;20195;-70
2021/05/28 12:40:30;;;;;;;1.25;0.70;;;;;;;;;;5054049;28;20244;-69
2021/05/28 12:42:56;;;;;;;0.82;0.60;;;;;;;;;;5060258;28;20220;-69
2021/05/28 12:45:30;;;;;;;1.33;0.70;;;;;;;;;;5069011;28;20177;-68
2021/05/28 12:47:56;;;;;;;0.80;0.80;;;;;;;;;;5071433;28;20223;-68
2021/05/28 12:50:33;;;;;;;0.67;0.67;;;;;;;;;;5070979;28;20255;-69
2021/05/28 12:53:19;;;;;;;0.85;0.70;;;;;;;;;;5048590;28;20448;-68
2021/05/28 12:55:49;;;;;;;1.77;0.95;;;;;;;;;;5048390;28;20191;-68
2021/05/28 12:58:25;;;;;;;2.97;0.90;;;;;;;;;;5049283;28;20193;-68
2021/05/28 13:00:54;;;;;;;1.30;1.05;;;;;;;;;;5047991;28;20208;-68
2021/05/28 13:03:38;;;;;;;1.25;1.00;;;;;;;;;;5046385;28;20205;-69
2021/05/28 13:06:23;;;;;;;2.67;0.90;;;;;;;;;;5048012;28;20177;-70
2021/05/28 13:08:49;;;;;;;1.30;0.80;;;;;;;;;;5049429;28;20594;-69
2021/05/28 13:11:15;;;;;;;1.52;0.88;;;;;;;;;;5052126;28;20177;-69
2021/05/28 13:13:44;;;;;;;1.35;1.02;;;;;;;;;;5054973;28;20848;-68
2021/05/28 13:16:10;;;;;;;2.92;0.88;;;;;;;;;;5049830;28;20236;-69
2021/05/28 13:18:44;;;;;;;1.50;1.33;;;;;;;;;;5053289;28;20192;-68
2021/05/28 13:21:25;;;;;;;0.82;0.60;;;;;;;;;;5047809;28;20965;-69
2021/05/28 13:23:51;;;;;;;1.02;0.80;;;;;;;;;;5047802;28;20261;-69
2021/05/28 13:26:17;;;;;;;5.15;1.00;;;;;;;;;;5052875;28;20181;-70
2021/05/28 13:28:43;;;;;;;1.42;0.90;;;;;;;;;;5048059;28;20223;-69
2021/05/28 13:31:09;;;;;;;1.35;0.80;;;;;;;;;;5053501;28;20210;-69
2021/05/28 13:33:38;;;;;;;1.40;1.00;;;;;;;;;;5050310;28;20219;-69
2021/05/28 13:36:04;;;;;;;2.88;1.30;;;;;;;;;;5053571;28;20268;-70
2021/05/28 13:38:30;;;;;;;3.67;0.95;;;;;;;;;;5048748;28;20193;-69
2021/05/28 13:40:58;;;;;;;1.00;0.90;;;;;;;;;;5054031;28;20708;-69
2021/05/28 13:43:24;;;;;;;1.60;1.00;;;;;;;;;;5050534;28;20282;-69
2021/05/28 13:45:51;;;;;;;1.10;0.98;;;;;;;;;;5050834;28;20616;-69
2021/05/28 13:48:16;;;;;;;2.13;0.90;;;;;;;;;;5053828;28;20177;-68
2021/05/28 13:50:42;;;;;;;1.23;1.08;;;;;;;;;;5049445;28;20601;-69
2021/05/28 13:53:07;;;;;;;1.40;0.90;;;;;;;;;;5041960;28;20776;-69
2021/05/28 13:55:33;;;;;;;1.67;1.42;;;;;;;;;;5045908;28;20698;-69
2021/05/28 13:57:59;;;;;;;1.40;1.13;;;;;;;;;;5050500;28;20176;-69
2021/05/28 14:00:25;;;;;;;2.95;1.00;;;;;;;;;;5050202;28;20732;-69
2021/05/28 14:02:50;;;;;;;3.17;0.93;;;;;;;;;;5049224;28;20211;-69
2021/05/28 14:05:16;;;;;;;1.85;1.33;;;;;;;;;;5048593;28;20658;-69
2021/05/28 14:07:42;;;;;;;1.90;1.13;;;;;;;;;;5047608;28;20177;-70
2021/05/28 14:10:07;;;;;;;2.40;1.40;;;;;;;;;;5050981;28;20618;-69
2021/05/28 14:12:33;;;;;;;1.83;1.30;;;;;;;;;;5058488;28;20205;-70
2021/05/28 14:14:58;;;;;;;2.25;1.08;;;;;;;;;;5051676;28;20177;-70
2021/05/28 14:17:24;;;;;;;1.20;1.08;;;;;;;;;;5049013;28;20196;-70
2021/05/28 14:19:49;;;;;;;0.90;0.80;;;;;;;;;;5050022;28;21338;-70
2021/05/28 14:22:15;;;;;;;1.53;0.90;;;;;;;;;;5048147;28;20332;-69
2021/05/28 14:24:40;;;;;;;1.07;0.80;;;;;;;;;;5048781;28;20424;-69
2021/05/28 14:27:05;;;;;;;3.93;1.00;;;;;;;;;;5048222;28;20433;-69